Time;durP1;ratioP1;P1;durP2;ratioP2;P2;SDS_P1;SDS_P2;PMS_P1;PMS_P2;Temp;Humidity;BMP_temperature;BMP_pressure;BME280_temperature;BME280_humidity;BME280_pressure;Samples;Min_cycle;Max_cycle;Signal;HPM_P1;HPM_P2
2022/09/05 00:01:30;;;;;;;11.57;8.27;;;;;;;;;;5083788;28;20447;-72
2022/09/05 00:04:01;;;;;;;8.90;8.00;;;;;;;;;;5070458;28;20024;-71
2022/09/05 00:06:33;;;;;;;15.10;7.88;;;;;;;;;;5084952;28;20044;-70
2022/09/05 00:09:29;;;;;;;11.25;8.40;;;;;;;;;;5075644;28;20028;-68
2022/09/05 00:11:57;;;;;;;15.02;8.65;;;;;;;;;;5046893;28;20105;-72
2022/09/05 00:14:31;;;;;;;13.18;8.38;;;;;;;;;;5070113;28;20486;-69
2022/09/05 00:17:05;;;;;;;10.55;8.18;;;;;;;;;;5069298;28;20048;-71
2022/09/05 00:19:34;;;;;;;10.07;8.65;;;;;;;;;;5071775;28;20504;-72
2022/09/05 00:22:00;;;;;;;9.27;8.07;;;;;;;;;;5076268;28;20039;-72
2022/09/05 00:24:45;;;;;;;11.63;8.27;;;;;;;;;;5090403;28;20486;-70
2022/09/05 00:27:23;;;;;;;11.77;9.45;;;;;;;;;;5077641;28;20053;-69
2022/09/05 00:30:01;;;;;;;9.77;8.77;;;;;;;;;;5090897;28;20493;-72
2022/09/05 00:32:39;;;;;;;9.50;8.50;;;;;;;;;;5083444;28;20048;-70
2022/09/05 00:35:13;;;;;;;13.05;8.90;;;;;;;;;;5075254;28;20063;-71
2022/09/05 00:37:41;;;;;;;11.48;8.13;;;;;;;;;;5072168;28;20036;-70
2022/09/05 00:40:27;;;;;;;10.55;9.25;;;;;;;;;;5072993;28;20082;-69
2022/09/05 00:43:03;;;;;;;9.57;8.60;;;;;;;;;;5063063;28;20044;-67
2022/09/05 00:45:38;;;;;;;10.68;9.05;;;;;;;;;;5073193;28;20101;-71
2022/09/05 00:48:11;;;;;;;11.63;9.05;;;;;;;;;;5086007;28;20021;-71
2022/09/05 00:50:57;;;;;;;10.50;8.93;;;;;;;;;;5071540;28;20036;-70
2022/09/05 00:53:30;;;;;;;9.93;8.93;;;;;;;;;;5081681;28;20028;-70
2022/09/05 00:56:02;;;;;;;12.45;8.63;;;;;;;;;;5076514;28;20029;-72
2022/09/05 00:58:31;;;;;;;11.50;9.32;;;;;;;;;;5073777;28;20398;-70
2022/09/05 01:00:58;;;;;;;10.68;9.13;;;;;;;;;;5089919;28;20028;-72
2022/09/05 01:03:42;;;;;;;14.30;9.90;;;;;;;;;;5072804;28;20475;-68
2022/09/05 01:06:13;;;;;;;12.20;9.73;;;;;;;;;;5084698;28;20016;-71
2022/09/05 01:08:48;;;;;;;10.55;9.13;;;;;;;;;;5080692;28;20032;-69
2022/09/05 01:11:34;;;;;;;11.10;9.07;;;;;;;;;;5078494;28;20031;-69
2022/09/05 01:14:10;;;;;;;10.82;8.80;;;;;;;;;;5072364;28;20071;-71
2022/09/05 01:16:54;;;;;;;9.80;8.80;;;;;;;;;;5072532;28;20028;-70
2022/09/05 01:19:20;;;;;;;10.27;9.10;;;;;;;;;;5070001;28;20116;-70
2022/09/05 01:21:57;;;;;;;10.50;9.35;;;;;;;;;;5070923;28;20103;-71
2022/09/05 01:24:32;;;;;;;10.30;9.20;;;;;;;;;;5085015;28;20040;-70
2022/09/05 01:27:16;;;;;;;11.40;9.55;;;;;;;;;;5070788;28;20021;-68
2022/09/05 01:29:49;;;;;;;11.25;9.07;;;;;;;;;;5083776;28;20030;-69
2022/09/05 01:32:34;;;;;;;11.85;9.30;;;;;;;;;;5070989;28;20028;-72
2022/09/05 01:35:19;;;;;;;10.50;9.50;;;;;;;;;;5083926;28;20032;-69
2022/09/05 01:37:52;;;;;;;11.25;9.18;;;;;;;;;;5071221;28;20042;-71
2022/09/05 01:40:41;;;;;;;12.05;9.55;;;;;;;;;;5071937;28;20035;-70
2022/09/05 01:43:24;;;;;;;10.70;9.60;;;;;;;;;;5070482;28;20051;-72
2022/09/05 01:46:10;;;;;;;11.52;9.57;;;;;;;;;;5076388;28;20021;-71
2022/09/05 01:48:39;;;;;;;9.73;8.35;;;;;;;;;;5060328;28;20037;-70
2022/09/05 01:51:20;;;;;;;11.27;9.57;;;;;;;;;;5071483;28;20028;-69
2022/09/05 01:53:57;;;;;;;15.43;10.05;;;;;;;;;;5071943;28;20505;-69
2022/09/05 01:56:41;;;;;;;22.95;10.02;;;;;;;;;;5072008;28;20024;-71
2022/09/05 01:59:33;;;;;;;10.63;9.52;;;;;;;;;;5077945;28;20019;-69
2022/09/05 02:01:59;;;;;;;11.00;8.77;;;;;;;;;;5066524;28;20036;-71
2022/09/05 02:04:44;;;;;;;11.05;9.15;;;;;;;;;;5085225;28;20035;-71
2022/09/05 02:07:28;;;;;;;11.23;9.13;;;;;;;;;;5083804;28;20070;-71
2022/09/05 02:09:54;;;;;;;11.38;9.43;;;;;;;;;;5070058;28;20074;-71
2022/09/05 02:12:29;;;;;;;11.20;8.80;;;;;;;;;;5077302;28;20033;-73
2022/09/05 02:15:03;;;;;;;14.68;8.45;;;;;;;;;;5071293;28;20101;-71
2022/09/05 02:17:42;;;;;;;9.50;8.50;;;;;;;;;;5070190;28;20111;-71
2022/09/05 02:20:12;;;;;;;11.73;9.18;;;;;;;;;;5069879;28;20055;-71
2022/09/05 02:22:46;;;;;;;11.25;8.75;;;;;;;;;;5072384;28;20386;-71
2022/09/05 02:25:17;;;;;;;10.18;8.90;;;;;;;;;;5080990;28;20048;-71
2022/09/05 02:27:49;;;;;;;10.85;9.10;;;;;;;;;;5070272;28;20016;-70
2022/09/05 02:30:16;;;;;;;11.55;9.27;;;;;;;;;;5087886;28;20386;-70
2022/09/05 02:33:01;;;;;;;10.57;8.95;;;;;;;;;;5074163;28;20025;-71
2022/09/05 02:35:42;;;;;;;10.45;9.43;;;;;;;;;;5071072;28;20035;-71
2022/09/05 02:38:32;;;;;;;12.38;8.77;;;;;;;;;;5077352;28;20024;-68
2022/09/05 02:40:59;;;;;;;13.32;9.65;;;;;;;;;;5063722;28;20071;-70
2022/09/05 02:43:31;;;;;;;12.20;9.27;;;;;;;;;;5070662;28;20483;-70
2022/09/05 02:46:18;;;;;;;11.18;9.98;;;;;;;;;;5070769;28;20429;-70
2022/09/05 02:48:44;;;;;;;10.02;8.43;;;;;;;;;;5068904;28;20046;-69
2022/09/05 02:51:14;;;;;;;10.70;9.60;;;;;;;;;;5070742;28;20027;-72
2022/09/05 02:53:44;;;;;;;11.40;10.10;;;;;;;;;;5071168;28;20122;-71
2022/09/05 02:56:15;;;;;;;13.45;10.55;;;;;;;;;;5070732;28;20086;-72
2022/09/05 02:59:02;;;;;;;13.70;9.98;;;;;;;;;;5073803;28;20477;-72
2022/09/05 03:01:51;;;;;;;11.50;9.45;;;;;;;;;;5077177;28;20371;-70
2022/09/05 03:04:19;;;;;;;11.38;9.80;;;;;;;;;;5073806;28;20021;-71
2022/09/05 03:07:06;;;;;;;11.88;10.00;;;;;;;;;;5087908;28;20039;-71
2022/09/05 03:09:43;;;;;;;12.57;9.93;;;;;;;;;;5072426;28;20099;-70
2022/09/05 03:12:27;;;;;;;13.38;10.35;;;;;;;;;;5076996;28;20115;-70
2022/09/05 03:14:59;;;;;;;14.63;10.23;;;;;;;;;;5078250;28;20539;-70
2022/09/05 03:17:47;;;;;;;13.55;11.02;;;;;;;;;;5074945;28;20033;-69
2022/09/05 03:20:13;;;;;;;11.68;10.57;;;;;;;;;;5069132;28;20100;-71
2022/09/05 03:22:58;;;;;;;12.55;11.25;;;;;;;;;;5072025;28;20032;-70
2022/09/05 03:25:24;;;;;;;12.98;9.65;;;;;;;;;;5090787;28;20039;-72
2022/09/05 03:28:05;;;;;;;14.93;11.80;;;;;;;;;;5053407;28;20016;-71
2022/09/05 03:30:50;;;;;;;11.93;10.63;;;;;;;;;;5070991;28;20035;-72
2022/09/05 03:33:16;;;;;;;14.35;11.27;;;;;;;;;;5078493;28;20473;-72
2022/09/05 03:35:42;;;;;;;13.20;11.75;;;;;;;;;;5076020;28;20021;-73
2022/09/05 03:38:26;;;;;;;14.43;12.25;;;;;;;;;;5069585;28;20025;-72
2022/09/05 03:41:05;;;;;;;14.60;12.30;;;;;;;;;;5068648;28;20043;-70
2022/09/05 03:43:56;;;;;;;14.63;12.50;;;;;;;;;;5070048;28;20089;-70
2022/09/05 03:46:42;;;;;;;14.20;12.38;;;;;;;;;;5070330;28;20044;-71
2022/09/05 03:49:21;;;;;;;13.80;11.50;;;;;;;;;;5040896;28;20072;-71
2022/09/05 03:51:50;;;;;;;15.10;12.18;;;;;;;;;;5070254;28;20031;-68
2022/09/05 03:54:22;;;;;;;12.75;11.43;;;;;;;;;;5070988;28;20055;-72
2022/09/05 03:56:51;;;;;;;13.85;12.45;;;;;;;;;;5074475;28;20017;-73
2022/09/05 03:59:17;;;;;;;14.77;13.18;;;;;;;;;;5081155;28;20064;-69
2022/09/05 04:01:47;;;;;;;14.73;13.23;;;;;;;;;;5085000;28;20453;-73
2022/09/05 04:04:22;;;;;;;14.23;12.50;;;;;;;;;;5073667;28;20021;-71
2022/09/05 04:06:53;;;;;;;13.60;11.98;;;;;;;;;;5091370;28;20281;-72
2022/09/05 04:09:22;;;;;;;16.33;13.85;;;;;;;;;;5076437;28;20465;-71
2022/09/05 04:11:50;;;;;;;14.15;12.65;;;;;;;;;;5079882;28;20019;-72
2022/09/05 04:14:39;;;;;;;14.73;12.93;;;;;;;;;;5072010;28;20127;-73
2022/09/05 04:17:29;;;;;;;16.23;13.30;;;;;;;;;;5073006;28;20099;-69
2022/09/05 04:20:00;;;;;;;14.20;12.65;;;;;;;;;;5073616;28;20623;-72
2022/09/05 04:22:35;;;;;;;16.13;13.13;;;;;;;;;;5078703;28;20425;-71
2022/09/05 04:25:04;;;;;;;15.25;12.93;;;;;;;;;;5082184;28;20533;-73
2022/09/05 04:27:45;;;;;;;16.45;13.25;;;;;;;;;;5077230;28;20024;-73
2022/09/05 04:30:32;;;;;;;14.48;12.93;;;;;;;;;;5089475;28;20024;-72
2022/09/05 04:33:04;;;;;;;17.85;12.23;;;;;;;;;;5073504;28;20041;-72
2022/09/05 04:35:47;;;;;;;14.90;12.82;;;;;;;;;;5073187;28;20086;-70
2022/09/05 04:38:15;;;;;;;16.92;11.95;;;;;;;;;;5080625;28;20390;-72
2022/09/05 04:40:41;;;;;;;17.50;12.88;;;;;;;;;;5080734;28;20133;-72
2022/09/05 04:43:27;;;;;;;14.60;12.38;;;;;;;;;;5075975;28;20033;-69
2022/09/05 04:45:59;;;;;;;15.77;11.68;;;;;;;;;;5080315;28;20516;-72
2022/09/05 04:48:28;;;;;;;13.98;12.27;;;;;;;;;;5075846;28;20106;-72
2022/09/05 04:51:04;;;;;;;14.63;12.18;;;;;;;;;;5073838;28;20028;-72
2022/09/05 04:53:38;;;;;;;13.82;12.27;;;;;;;;;;5073000;28;20521;-72
2022/09/05 04:56:08;;;;;;;11.88;10.57;;;;;;;;;;5055395;28;20108;-71
2022/09/05 04:58:36;;;;;;;11.52;9.73;;;;;;;;;;5074695;28;20059;-71
2022/09/05 05:01:05;;;;;;;13.25;9.30;;;;;;;;;;5071398;28;20024;-73
2022/09/05 05:03:33;;;;;;;13.30;10.07;;;;;;;;;;5072832;28;20039;-73
2022/09/05 05:06:04;;;;;;;10.98;9.45;;;;;;;;;;5080115;28;20028;-71
2022/09/05 05:08:50;;;;;;;11.20;8.68;;;;;;;;;;5072316;28;20040;-71
2022/09/05 05:11:22;;;;;;;11.05;8.57;;;;;;;;;;5078073;28;20436;-72
2022/09/05 05:13:52;;;;;;;9.63;7.75;;;;;;;;;;5071717;28;20386;-72
2022/09/05 05:16:26;;;;;;;9.63;7.25;;;;;;;;;;5072209;28;20035;-73
2022/09/05 05:18:54;;;;;;;10.63;7.60;;;;;;;;;;5071527;28;20029;-72
2022/09/05 05:21:25;;;;;;;9.07;7.18;;;;;;;;;;5072060;28;20021;-72
2022/09/05 05:23:53;;;;;;;9.32;7.13;;;;;;;;;;5083992;28;20063;-71
2022/09/05 05:26:32;;;;;;;9.75;7.10;;;;;;;;;;5072420;28;20048;-71
2022/09/05 05:29:08;;;;;;;8.95;7.03;;;;;;;;;;5077435;28;20016;-73
2022/09/05 05:31:36;;;;;;;9.38;7.65;;;;;;;;;;5079867;28;20085;-73
2022/09/05 05:34:04;;;;;;;26.98;8.57;;;;;;;;;;5077854;28;20033;-72
2022/09/05 05:36:36;;;;;;;9.63;7.47;;;;;;;;;;5071747;28;20029;-72
2022/09/05 05:39:16;;;;;;;7.55;6.82;;;;;;;;;;5071342;28;20494;-72
2022/09/05 05:41:42;;;;;;;10.90;7.22;;;;;;;;;;5070342;28;20032;-71
2022/09/05 05:44:12;;;;;;;13.15;7.22;;;;;;;;;;5072283;28;20553;-71
2022/09/05 05:46:39;;;;;;;9.45;7.10;;;;;;;;;;5071694;28;20070;-71
2022/09/05 05:49:24;;;;;;;8.77;6.90;;;;;;;;;;5071153;28;20107;-72
2022/09/05 05:51:59;;;;;;;9.15;7.10;;;;;;;;;;5071707;28;20020;-69
2022/09/05 05:54:41;;;;;;;9.68;6.35;;;;;;;;;;5071266;28;20027;-71
2022/09/05 05:57:13;;;;;;;9.68;6.68;;;;;;;;;;5071235;28;20409;-71
2022/09/05 05:59:52;;;;;;;10.00;6.63;;;;;;;;;;5083085;28;20086;-71
2022/09/05 06:02:28;;;;;;;9.77;6.70;;;;;;;;;;5070118;28;20020;-68
2022/09/05 06:04:54;;;;;;;10.88;7.50;;;;;;;;;;5085959;28;20116;-71
2022/09/05 06:07:34;;;;;;;7.03;6.32;;;;;;;;;;5090388;28;20027;-71
2022/09/05 06:10:20;;;;;;;8.75;5.90;;;;;;;;;;5072489;28;20036;-72
2022/09/05 06:13:12;;;;;;;8.02;6.32;;;;;;;;;;5043678;28;20042;-71
2022/09/05 06:15:49;;;;;;;8.73;6.45;;;;;;;;;;5073928;28;20044;-69
2022/09/05 06:18:18;;;;;;;6.80;5.80;;;;;;;;;;5077480;28;20028;-72
2022/09/05 06:20:47;;;;;;;8.90;6.03;;;;;;;;;;5076429;28;20436;-70
2022/09/05 06:23:28;;;;;;;11.20;6.45;;;;;;;;;;5077511;28;20085;-72
2022/09/05 06:25:54;;;;;;;;;;;;;;;;;;5075757;28;20032;-72
2022/09/05 06:28:26;;;;;;;9.25;6.40;;;;;;;;;;5071227;28;19904;-72
2022/09/05 06:31:07;;;;;;;11.77;6.65;;;;;;;;;;5075239;28;20021;-71
2022/09/05 06:33:52;;;;;;;11.35;7.18;;;;;;;;;;5070799;28;20394;-71
2022/09/05 06:36:22;;;;;;;7.40;6.47;;;;;;;;;;5070639;28;20056;-70
2022/09/05 06:39:09;;;;;;;10.85;6.75;;;;;;;;;;5070351;28;20052;-71
2022/09/05 06:41:55;;;;;;;9.45;7.00;;;;;;;;;;5107173;22;20088;-74
2022/09/05 06:44:46;;;;;;;10.40;7.03;;;;;;;;;;5032289;28;20037;-74
2022/09/05 06:47:15;;;;;;;11.05;7.38;;;;;;;;;;5043020;28;20501;-75
2022/09/05 06:49:49;;;;;;;7.63;6.82;;;;;;;;;;5052912;28;20508;-75
2022/09/05 06:52:34;;;;;;;8.55;5.90;;;;;;;;;;5048823;28;20036;-74
2022/09/05 06:55:23;;;;;;;10.57;6.85;;;;;;;;;;5037587;28;20055;-81
2022/09/05 06:58:08;;;;;;;9.15;7.32;;;;;;;;;;5047618;28;20044;-70
2022/09/05 07:00:39;;;;;;;11.25;7.22;;;;;;;;;;5048515;28;20343;-72
2022/09/05 07:03:23;;;;;;;13.50;7.78;;;;;;;;;;5035537;28;20025;-75
2022/09/05 07:05:49;;;;;;;7.75;6.68;;;;;;;;;;5048935;28;20506;-73
2022/09/05 07:08:16;;;;;;;10.02;7.18;;;;;;;;;;5049929;28;20021;-73
2022/09/05 07:10:44;;;;;;;7.68;6.95;;;;;;;;;;5050315;28;20021;-73
2022/09/05 07:13:19;;;;;;;12.32;7.13;;;;;;;;;;5050764;28;20086;-73
2022/09/05 07:15:48;;;;;;;7.55;6.03;;;;;;;;;;5050709;28;20486;-73
2022/09/05 07:18:20;;;;;;;6.85;6.15;;;;;;;;;;5050239;28;20476;-74
2022/09/05 07:20:51;;;;;;;8.63;6.40;;;;;;;;;;5050270;28;20032;-73
2022/09/05 07:23:26;;;;;;;10.90;7.40;;;;;;;;;;5032454;28;20439;-73
2022/09/05 07:25:54;;;;;;;7.20;6.32;;;;;;;;;;5050330;28;20056;-74
2022/09/05 07:28:21;;;;;;;9.43;7.50;;;;;;;;;;5051309;28;20021;-73
2022/09/05 07:30:52;;;;;;;7.80;7.00;;;;;;;;;;5041693;28;20021;-74
2022/09/05 07:33:18;;;;;;;;;;;;;;;;;;5055079;28;20036;-74
2022/09/05 07:35:44;;;;;;;9.23;6.85;;;;;;;;;;5048181;28;19909;-73
2022/09/05 07:38:15;;;;;;;10.57;7.30;;;;;;;;;;5040137;28;20029;-74
2022/09/05 07:40:47;;;;;;;8.25;6.47;;;;;;;;;;5052881;28;20107;-74
2022/09/05 07:43:20;;;;;;;10.48;7.60;;;;;;;;;;5053389;28;20035;-74
2022/09/05 07:45:48;;;;;;;8.98;6.72;;;;;;;;;;5054301;28;20025;-74
2022/09/05 07:48:20;;;;;;;10.10;7.00;;;;;;;;;;5053717;28;20032;-74
2022/09/05 07:50:48;;;;;;;9.38;7.55;;;;;;;;;;5053544;28;20025;-74
2022/09/05 07:53:15;;;;;;;6.53;5.93;;;;;;;;;;5054519;28;20108;-74
2022/09/05 07:55:42;;;;;;;12.05;7.88;;;;;;;;;;5057568;28;20036;-74
2022/09/05 07:58:11;;;;;;;9.18;7.82;;;;;;;;;;5057357;28;20048;-74
2022/09/05 08:00:37;;;;;;;9.70;7.95;;;;;;;;;;5057687;28;20039;-75
2022/09/05 08:03:11;;;;;;;13.07;9.48;;;;;;;;;;5038985;28;20103;-75
2022/09/05 08:05:43;;;;;;;9.45;8.55;;;;;;;;;;5057622;28;20044;-74
2022/09/05 08:08:12;;;;;;;11.52;9.55;;;;;;;;;;5043513;28;20031;-74
2022/09/05 08:10:42;;;;;;;9.38;8.35;;;;;;;;;;5054379;28;20024;-74
2022/09/05 08:13:10;;;;;;;9.98;8.98;;;;;;;;;;5040596;28;20080;-74
2022/09/05 08:15:37;;;;;;;13.18;9.88;;;;;;;;;;5053764;28;20059;-75
2022/09/05 08:18:12;;;;;;;10.88;9.23;;;;;;;;;;5035374;28;20059;-74
2022/09/05 08:20:43;;;;;;;10.30;8.85;;;;;;;;;;5053939;28;20044;-73
2022/09/05 08:23:12;;;;;;;10.80;8.95;;;;;;;;;;5040809;28;20020;-73
2022/09/05 08:25:44;;;;;;;10.43;9.40;;;;;;;;;;5053808;28;20032;-74
2022/09/05 08:28:20;;;;;;;10.02;8.80;;;;;;;;;;5053087;28;20017;-74
2022/09/05 08:30:53;;;;;;;11.23;8.57;;;;;;;;;;5048410;28;20079;-74
2022/09/05 08:33:23;;;;;;;10.32;9.07;;;;;;;;;;5053665;28;20024;-74
2022/09/05 08:35:53;;;;;;;11.25;9.68;;;;;;;;;;5053561;28;20054;-74
2022/09/05 08:38:20;;;;;;;9.65;8.57;;;;;;;;;;5052946;28;20021;-74
2022/09/05 08:40:55;;;;;;;11.63;8.60;;;;;;;;;;5052518;28;20025;-74
2022/09/05 08:43:35;;;;;;;10.75;8.10;;;;;;;;;;5053127;28;20052;-74
2022/09/05 08:46:01;;;;;;;11.35;9.13;;;;;;;;;;5053433;28;20009;-74
2022/09/05 08:48:30;;;;;;;10.77;9.68;;;;;;;;;;5052739;28;20031;-74
2022/09/05 08:51:15;;;;;;;10.65;9.20;;;;;;;;;;5052343;28;20367;-74
2022/09/05 08:53:56;;;;;;;13.20;10.23;;;;;;;;;;5053395;28;20581;-75
2022/09/05 08:56:41;;;;;;;9.93;8.93;;;;;;;;;;5053631;28;20096;-75
2022/09/05 08:59:21;;;;;;;11.75;9.25;;;;;;;;;;5052322;28;20024;-74
2022/09/05 09:01:56;;;;;;;10.93;9.80;;;;;;;;;;5053336;28;20025;-74
2022/09/05 09:04:38;;;;;;;12.02;9.63;;;;;;;;;;5054165;28;20100;-74
2022/09/05 09:07:12;;;;;;;11.35;9.38;;;;;;;;;;5052833;28;20045;-75
2022/09/05 09:09:37;;;;;;;12.52;9.38;;;;;;;;;;5052821;28;20467;-75
2022/09/05 09:12:06;;;;;;;11.52;10.32;;;;;;;;;;5052888;28;20043;-75
2022/09/05 09:14:32;;;;;;;9.07;8.25;;;;;;;;;;5052853;28;20029;-74
2022/09/05 09:17:19;;;;;;;10.43;9.23;;;;;;;;;;5052652;28;20564;-73
2022/09/05 09:19:57;;;;;;;11.23;9.07;;;;;;;;;;5052684;28;20040;-74
2022/09/05 09:22:52;;;;;;;10.23;9.07;;;;;;;;;;5052197;28;20497;-74
2022/09/05 09:25:18;;;;;;;10.85;8.80;;;;;;;;;;5031381;28;20037;-74
2022/09/05 09:27:50;;;;;;;13.05;9.77;;;;;;;;;;5051676;28;20078;-74
2022/09/05 09:30:17;;;;;;;9.98;8.80;;;;;;;;;;5052426;28;20029;-74
2022/09/05 09:32:44;;;;;;;10.15;8.90;;;;;;;;;;5052269;28;20028;-73
2022/09/05 09:35:17;;;;;;;9.68;8.48;;;;;;;;;;5034752;28;20029;-74
2022/09/05 09:37:49;;;;;;;12.85;9.27;;;;;;;;;;5051633;28;20370;-74
2022/09/05 09:40:21;;;;;;;11.43;8.93;;;;;;;;;;5052202;28;20082;-74
2022/09/05 09:42:56;;;;;;;13.38;9.20;;;;;;;;;;5034091;28;20035;-74
2022/09/05 09:45:41;;;;;;;9.13;8.18;;;;;;;;;;5052739;28;20021;-74
2022/09/05 09:48:09;;;;;;;14.23;9.38;;;;;;;;;;5037964;28;20479;-74
2022/09/05 09:50:45;;;;;;;10.93;8.93;;;;;;;;;;5050475;28;20057;-74
2022/09/05 09:53:26;;;;;;;11.50;8.75;;;;;;;;;;5038413;28;20028;-74
2022/09/05 09:55:52;;;;;;;;;;;;;;;;;;5052334;28;20029;-74
2022/09/05 09:58:24;;;;;;;10.45;9.32;;;;;;;;;;5051590;28;19959;-74
2022/09/05 10:00:58;;;;;;;12.90;8.43;;;;;;;;;;5051442;28;20028;-74
2022/09/05 10:03:24;;;;;;;10.05;9.05;;;;;;;;;;5051758;28;20096;-73
2022/09/05 10:05:59;;;;;;;8.98;8.07;;;;;;;;;;5051379;28;20047;-74
2022/09/05 10:08:51;;;;;;;9.68;8.77;;;;;;;;;;5051162;28;20021;-73
2022/09/05 10:11:17;;;;;;;9.82;8.15;;;;;;;;;;5013928;28;20031;-73
2022/09/05 10:14:11;;;;;;;10.77;8.45;;;;;;;;;;5051756;28;20021;-75
2022/09/05 10:16:40;;;;;;;10.25;7.80;;;;;;;;;;5037629;28;20113;-73
2022/09/05 10:19:25;;;;;;;9.65;7.43;;;;;;;;;;5050761;28;20197;-74
2022/09/05 10:21:54;;;;;;;8.43;7.53;;;;;;;;;;5051499;28;20481;-74
2022/09/05 10:24:38;;;;;;;9.02;8.10;;;;;;;;;;5051049;28;20102;-73
2022/09/05 10:27:23;;;;;;;9.18;8.27;;;;;;;;;;5051065;28;20602;-73
2022/09/05 10:29:52;;;;;;;11.13;8.20;;;;;;;;;;5044359;28;20073;-73
2022/09/05 10:32:24;;;;;;;13.00;8.63;;;;;;;;;;5051628;28;20509;-74
2022/09/05 10:34:57;;;;;;;9.52;7.78;;;;;;;;;;5038405;28;20021;-74
2022/09/05 10:37:30;;;;;;;11.48;8.30;;;;;;;;;;5050813;28;20083;-75
2022/09/05 10:39:59;;;;;;;13.93;7.78;;;;;;;;;;5051375;28;20064;-74
2022/09/05 10:42:33;;;;;;;8.63;7.45;;;;;;;;;;5051092;28;20379;-74
2022/09/05 10:45:02;;;;;;;8.52;7.45;;;;;;;;;;5045961;28;20074;-75
2022/09/05 10:47:34;;;;;;;9.57;7.72;;;;;;;;;;5030624;28;20609;-74
2022/09/05 10:50:12;;;;;;;9.68;7.13;;;;;;;;;;5049296;28;20021;-74
2022/09/05 10:52:54;;;;;;;8.63;6.68;;;;;;;;;;5049003;28;20033;-74
2022/09/05 10:55:26;;;;;;;7.35;5.97;;;;;;;;;;5047430;28;20025;-74
2022/09/05 10:57:53;;;;;;;10.20;6.10;;;;;;;;;;5048532;28;20485;-75
2022/09/05 11:00:37;;;;;;;7.15;6.25;;;;;;;;;;5049094;28;20495;-74
2022/09/05 11:03:04;;;;;;;7.40;5.97;;;;;;;;;;5049750;28;20071;-74
2022/09/05 11:05:36;;;;;;;14.27;6.13;;;;;;;;;;5050933;28;20071;-74
2022/09/05 11:08:14;;;;;;;6.43;4.82;;;;;;;;;;5049912;28;20449;-75
2022/09/05 11:11:00;;;;;;;5.57;5.00;;;;;;;;;;5050636;28;20021;-74
2022/09/05 11:13:25;;;;;;;7.53;4.88;;;;;;;;;;5050906;28;20029;-74
2022/09/05 11:16:10;;;;;;;5.25;4.65;;;;;;;;;;5037836;28;20079;-73
2022/09/05 11:18:44;;;;;;;8.63;4.50;;;;;;;;;;5040766;28;20487;-73
2022/09/05 11:21:16;;;;;;;8.10;4.80;;;;;;;;;;5049185;28;20433;-75
2022/09/05 11:23:44;;;;;;;5.22;4.43;;;;;;;;;;5049542;28;20024;-73
2022/09/05 11:26:17;;;;;;;6.53;4.63;;;;;;;;;;5032507;28;20059;-74
2022/09/05 11:29:00;;;;;;;7.15;4.63;;;;;;;;;;5030966;28;20422;-74
2022/09/05 11:31:37;;;;;;;7.03;4.72;;;;;;;;;;5037778;28;20090;-74
2022/09/05 11:34:21;;;;;;;10.40;4.55;;;;;;;;;;5050706;28;20048;-74
2022/09/05 11:36:50;;;;;;;8.82;4.30;;;;;;;;;;5050049;28;20041;-75
2022/09/05 11:39:35;;;;;;;5.20;3.83;;;;;;;;;;5049927;28;20029;-74
2022/09/05 11:42:01;;;;;;;4.72;4.13;;;;;;;;;;5050278;28;20033;-74
2022/09/05 11:44:29;;;;;;;4.95;3.65;;;;;;;;;;5041139;28;20449;-75
2022/09/05 11:47:27;;;;;;;8.70;3.90;;;;;;;;;;5031139;28;20383;-75
2022/09/05 11:50:32;;;;;;;4.22;3.83;;;;;;;;;;5002866;28;20130;-75
2022/09/05 11:53:16;;;;;;;4.93;3.85;;;;;;;;;;4948016;29;20396;-75
2022/09/05 11:55:49;;;;;;;6.13;3.97;;;;;;;;;;4947747;29;20033;-74
2022/09/05 11:58:27;;;;;;;3.53;3.10;;;;;;;;;;5012177;28;20107;-74
2022/09/05 12:01:14;;;;;;;4.35;3.85;;;;;;;;;;5044245;28;20479;-74
2022/09/05 12:03:44;;;;;;;4.47;3.88;;;;;;;;;;5050296;28;20491;-75
2022/09/05 12:06:28;;;;;;;5.82;4.15;;;;;;;;;;5044828;28;20022;-75
2022/09/05 12:09:09;;;;;;;5.47;3.80;;;;;;;;;;5041126;28;20029;-75
2022/09/05 12:11:38;;;;;;;8.23;4.20;;;;;;;;;;5032824;28;20506;-74
2022/09/05 12:14:07;;;;;;;6.00;3.88;;;;;;;;;;5043878;28;20033;-73
2022/09/05 12:16:48;;;;;;;5.25;4.25;;;;;;;;;;5052553;28;20040;-74
2022/09/05 12:19:19;;;;;;;13.93;5.00;;;;;;;;;;5052470;28;20036;-75
2022/09/05 12:22:01;;;;;;;6.57;4.72;;;;;;;;;;5053640;28;20013;-73
2022/09/05 12:24:46;;;;;;;4.47;3.85;;;;;;;;;;5053163;28;20013;-74
2022/09/05 12:27:14;;;;;;;5.57;3.88;;;;;;;;;;5053201;28;20032;-74
2022/09/05 12:29:41;;;;;;;6.47;3.95;;;;;;;;;;5053472;28;20024;-74
2022/09/05 12:32:12;;;;;;;7.47;3.78;;;;;;;;;;5053527;28;20025;-74
2022/09/05 12:34:48;;;;;;;5.03;3.75;;;;;;;;;;5053327;28;20475;-74
2022/09/05 12:37:14;;;;;;;4.60;3.67;;;;;;;;;;5052867;28;20072;-74
2022/09/05 12:39:44;;;;;;;5.93;3.90;;;;;;;;;;5053190;28;20018;-74
2022/09/05 12:42:20;;;;;;;8.88;3.58;;;;;;;;;;5069893;22;20033;-68
2022/09/05 12:45:10;;;;;;;5.65;3.75;;;;;;;;;;5051717;28;20029;-70
2022/09/05 12:47:55;;;;;;;7.35;4.40;;;;;;;;;;5052036;28;20021;-70
2022/09/05 12:50:24;;;;;;;5.72;3.60;;;;;;;;;;5052961;28;20068;-71
2022/09/05 12:52:53;;;;;;;5.45;3.80;;;;;;;;;;5044797;28;20476;-71
2022/09/05 12:55:25;;;;;;;8.20;4.45;;;;;;;;;;5031187;28;20060;-71
2022/09/05 12:57:51;;;;;;;;;;;;;;;;;;5030887;28;20537;-71
2022/09/05 13:00:20;;;;;;;4.75;4.10;;;;;;;;;;5030953;28;19909;-70
2022/09/05 13:02:51;;;;;;;5.03;4.53;;;;;;;;;;5029585;28;20046;-72
2022/09/05 13:05:18;;;;;;;4.97;4.50;;;;;;;;;;5031397;28;20357;-72
2022/09/05 13:07:55;;;;;;;5.30;4.50;;;;;;;;;;5030773;28;20276;-71
2022/09/05 13:10:36;;;;;;;7.00;4.72;;;;;;;;;;5032923;28;20103;-69
2022/09/05 13:13:13;;;;;;;7.30;4.75;;;;;;;;;;5031933;28;20067;-72
2022/09/05 13:15:42;;;;;;;5.45;4.57;;;;;;;;;;5028602;28;20040;-71
2022/09/05 13:18:11;;;;;;;5.85;4.90;;;;;;;;;;5030456;28;20123;-72
2022/09/05 13:20:44;;;;;;;6.03;4.88;;;;;;;;;;5031298;28;20038;-71
2022/09/05 13:23:10;;;;;;;6.68;4.78;;;;;;;;;;5030911;28;20479;-71
2022/09/05 13:25:37;;;;;;;6.40;5.03;;;;;;;;;;5030881;28;20109;-68
2022/09/05 13:28:05;;;;;;;5.03;4.55;;;;;;;;;;5012102;28;20331;-72
2022/09/05 13:30:35;;;;;;;5.65;4.53;;;;;;;;;;5030523;28;20361;-71
2022/09/05 13:33:25;;;;;;;8.18;5.30;;;;;;;;;;5012400;28;20022;-70
2022/09/05 13:36:04;;;;;;;10.32;5.25;;;;;;;;;;5019189;28;20487;-71
2022/09/05 13:38:42;;;;;;;8.00;4.60;;;;;;;;;;5029554;28;20514;-70
2022/09/05 13:41:14;;;;;;;6.45;5.20;;;;;;;;;;5031423;28;20022;-71
2022/09/05 13:43:43;;;;;;;7.00;4.63;;;;;;;;;;5014002;28;20407;-71
2022/09/05 13:46:18;;;;;;;8.25;5.55;;;;;;;;;;5013591;28;20104;-68
2022/09/05 13:48:54;;;;;;;8.88;5.10;;;;;;;;;;5031098;28;20030;-70
2022/09/05 13:51:38;;;;;;;5.90;4.53;;;;;;;;;;5031683;28;20068;-72
2022/09/05 13:54:24;;;;;;;6.88;4.97;;;;;;;;;;5014008;28;20030;-72
2022/09/05 13:56:52;;;;;;;8.13;5.07;;;;;;;;;;5031581;28;20021;-71
2022/09/05 13:59:20;;;;;;;10.43;6.00;;;;;;;;;;5030700;28;20044;-71
2022/09/05 14:01:46;;;;;;;5.97;5.07;;;;;;;;;;5013848;28;20522;-71
2022/09/05 14:04:24;;;;;;;7.40;4.90;;;;;;;;;;5031520;28;20298;-73
2022/09/05 14:06:50;;;;;;;5.70;5.15;;;;;;;;;;5031870;28;20026;-72
2022/09/05 14:09:16;;;;;;;5.72;5.13;;;;;;;;;;5030718;28;20036;-70
2022/09/05 14:11:57;;;;;;;6.05;5.45;;;;;;;;;;5031475;28;20025;-72
2022/09/05 14:14:28;;;;;;;7.43;5.57;;;;;;;;;;5031113;28;20017;-72
2022/09/05 14:17:02;;;;;;;7.13;4.88;;;;;;;;;;5031275;28;20113;-69
2022/09/05 14:22:31;;;;;;;6.30;4.95;;;;;;;;;;5031881;28;20085;-72
2022/09/05 14:24:57;;;;;;;5.63;5.03;;;;;;;;;;5032134;28;20030;-73
2022/09/05 14:27:23;;;;;;;6.68;4.88;;;;;;;;;;5028729;28;20108;-72
2022/09/05 14:29:51;;;;;;;7.05;4.90;;;;;;;;;;5031616;28;20025;-72
2022/09/05 14:32:17;;;;;;;7.38;5.15;;;;;;;;;;5030793;28;20406;-72
2022/09/05 14:34:43;;;;;;;7.35;4.88;;;;;;;;;;5030270;28;20212;-72
2022/09/05 14:37:22;;;;;;;10.32;5.22;;;;;;;;;;5029441;28;20032;-72
2022/09/05 14:39:54;;;;;;;9.95;5.78;;;;;;;;;;5012571;28;20021;-72
2022/09/05 14:42:20;;;;;;;6.40;4.85;;;;;;;;;;5030779;28;20029;-71
2022/09/05 14:45:07;;;;;;;7.25;5.00;;;;;;;;;;5031730;28;20048;-71
2022/09/05 14:47:52;;;;;;;8.38;5.05;;;;;;;;;;5029434;28;20025;-71
2022/09/05 14:50:26;;;;;;;6.50;5.28;;;;;;;;;;5030247;28;20033;-72
2022/09/05 14:53:01;;;;;;;8.38;4.97;;;;;;;;;;5030497;28;20622;-71
2022/09/05 14:55:28;;;;;;;5.70;4.97;;;;;;;;;;5028680;28;20041;-71
2022/09/05 14:57:54;;;;;;;6.95;5.45;;;;;;;;;;5029628;28;20062;-72
2022/09/05 15:00:21;;;;;;;6.88;5.18;;;;;;;;;;5030652;28;20040;-71
2022/09/05 15:02:49;;;;;;;6.53;4.90;;;;;;;;;;5030280;28;20037;-71
2022/09/05 15:05:18;;;;;;;9.68;5.18;;;;;;;;;;5031949;28;20147;-71
2022/09/05 15:07:49;;;;;;;6.15;5.15;;;;;;;;;;5030610;28;20026;-71
2022/09/05 15:10:20;;;;;;;5.82;5.18;;;;;;;;;;5032318;28;20056;-67
2022/09/05 15:12:48;;;;;;;10.45;5.20;;;;;;;;;;5022703;28;20032;-69
2022/09/05 15:15:24;;;;;;;7.85;4.95;;;;;;;;;;5030368;28;20033;-68
2022/09/05 15:17:52;;;;;;;5.88;4.55;;;;;;;;;;5028720;28;20495;-69
2022/09/05 15:20:29;;;;;;;6.72;5.18;;;;;;;;;;5021303;28;20038;-67
2022/09/05 15:22:55;;;;;;;5.75;4.78;;;;;;;;;;5028045;28;20222;-69